Time;durP1;ratioP1;P1;durP2;ratioP2;P2;SDS_P1;SDS_P2;PMS_P1;PMS_P2;Temp;Humidity;BMP_temperature;BMP_pressure;BME280_temperature;BME280_humidity;BME280_pressure;Samples;Min_cycle;Max_cycle;Signal;HPM_P1;HPM_P2
2022/10/28 00:01:41;;;;;;;13.07;7.27;;;13.60;38.80;;;;;;5000933;28;20538;-68
2022/10/28 00:04:08;;;;;;;14.20;6.90;;;13.50;38.70;;;;;;4993964;28;20551;-68
2022/10/28 00:06:36;;;;;;;14.73;8.17;;;13.50;38.60;;;;;;4997409;28;20479;-68
2022/10/28 00:09:04;;;;;;;14.47;7.77;;;13.50;38.60;;;;;;5005173;28;20543;-68
2022/10/28 00:11:34;;;;;;;12.17;7.27;;;13.40;38.40;;;;;;5005022;28;21069;-69
2022/10/28 00:14:02;;;;;;;17.77;8.67;;;13.40;38.40;;;;;;5006487;28;20560;-70
2022/10/28 00:16:33;;;;;;;10.83;6.87;;;13.40;38.40;;;;;;5006544;28;20578;-68
2022/10/28 00:19:01;;;;;;;10.57;7.20;;;13.40;38.40;;;;;;5002294;28;21058;-68
2022/10/28 00:21:31;;;;;;;14.13;7.60;;;13.40;38.40;;;;;;5005588;28;20468;-68
2022/10/28 00:23:58;;;;;;;16.83;8.23;;;13.40;38.60;;;;;;5002073;28;20543;-69
2022/10/28 00:26:27;;;;;;;13.27;6.97;;;13.40;38.60;;;;;;5007548;28;20586;-68
2022/10/28 00:28:55;;;;;;;13.17;8.00;;;13.40;38.90;;;;;;4997419;28;20556;-68
2022/10/28 00:31:24;;;;;;;14.83;8.43;;;13.40;38.80;;;;;;5004017;28;20498;-68
2022/10/28 00:33:53;;;;;;;15.07;8.53;;;13.40;38.90;;;;;;5004716;28;20575;-69
2022/10/28 00:36:22;;;;;;;12.20;7.13;;;13.40;39.00;;;;;;5007062;28;20476;-70
2022/10/28 00:38:50;;;;;;;17.50;9.13;;;13.40;38.90;;;;;;5001763;28;20506;-68
2022/10/28 00:41:19;;;;;;;12.97;7.60;;;13.40;39.00;;;;;;4998048;28;21068;-68
2022/10/28 00:43:49;;;;;;;11.60;7.67;;;13.40;39.00;;;;;;4996325;28;20469;-69
2022/10/28 00:46:24;;;;;;;11.63;7.60;;;13.40;38.90;;;;;;4996468;28;20560;-68
2022/10/28 00:48:57;;;;;;;18.27;8.40;;;13.50;39.00;;;;;;5006205;28;20543;-68
2022/10/28 00:51:26;;;;;;;13.47;7.30;;;13.50;39.00;;;;;;5006553;28;20459;-68
2022/10/28 00:53:55;;;;;;;12.93;7.70;;;13.50;38.90;;;;;;4999705;28;20547;-68
2022/10/28 00:56:24;;;;;;;17.90;9.23;;;13.40;38.90;;;;;;5001353;28;20499;-68
2022/10/28 00:58:54;;;;;;;13.27;8.27;;;13.40;38.90;;;;;;5002570;28;20476;-68
2022/10/28 01:01:21;;;;;;;15.20;8.70;;;13.40;39.00;;;;;;4999973;28;21232;-69
2022/10/28 01:03:48;;;;;;;15.33;8.70;;;13.30;39.10;;;;;;5005813;28;20463;-70
2022/10/28 01:06:16;;;;;;;13.13;7.43;;;13.40;39.20;;;;;;4996484;28;20484;-69
2022/10/28 01:08:43;;;;;;;10.33;7.30;;;13.30;39.30;;;;;;5008313;28;20467;-68
2022/10/28 01:11:41;;;;;;;15.43;8.33;;;13.40;39.20;;;;;;5006976;28;20460;-69
2022/10/28 01:14:20;;;;;;;14.73;7.20;;;13.40;39.30;;;;;;5004335;28;20538;-68
2022/10/28 01:17:00;;;;;;;19.30;8.53;;;13.40;39.10;;;;;;5002788;28;20566;-68
2022/10/28 01:20:08;;;;;;;14.93;8.50;;;13.40;39.20;;;;;;5004213;28;20475;-68
2022/10/28 01:22:42;;;;;;;12.80;7.27;;;13.40;39.40;;;;;;5004980;28;20496;-69
2022/10/28 01:25:39;;;;;;;12.20;7.80;;;13.40;39.20;;;;;;5002346;28;20492;-68
2022/10/28 01:28:22;;;;;;;15.30;9.03;;;13.30;39.60;;;;;;5003630;28;20832;-67
2022/10/28 01:31:17;;;;;;;13.93;7.63;;;13.30;39.40;;;;;;4997603;28;20467;-68
2022/10/28 01:33:50;;;;;;;13.10;8.17;;;13.30;39.60;;;;;;5000665;28;20463;-70
2022/10/28 01:36:27;;;;;;;13.63;8.00;;;13.30;39.40;;;;;;5005988;28;20490;-69
2022/10/28 01:39:01;;;;;;;21.43;8.87;;;13.30;39.50;;;;;;5001409;28;21023;-69
2022/10/28 01:41:33;;;;;;;12.80;8.53;;;13.30;39.50;;;;;;5004162;28;20478;-68
2022/10/28 01:44:06;;;;;;;14.80;8.50;;;13.30;39.50;;;;;;5005464;28;20549;-71
2022/10/28 01:46:40;;;;;;;13.00;7.37;;;13.30;39.50;;;;;;5003935;28;20590;-68
2022/10/28 01:49:13;;;;;;;11.33;6.97;;;13.30;39.60;;;;;;5003723;28;20548;-68
2022/10/28 01:51:43;;;;;;;12.90;7.17;;;13.40;39.50;;;;;;4995596;28;22358;-69
2022/10/28 01:54:15;;;;;;;17.20;7.00;;;13.40;39.10;;;;;;5001380;28;20470;-68
2022/10/28 01:56:44;;;;;;;16.67;8.27;;;13.40;39.00;;;;;;4999391;28;20591;-69
2022/10/28 01:59:15;;;;;;;11.33;6.80;;;13.40;38.90;;;;;;5004600;28;20484;-68
2022/10/28 02:01:44;;;;;;;10.87;6.80;;;13.40;39.20;;;;;;4988400;28;20485;-69
2022/10/28 02:04:10;;;;;;;11.57;7.50;;;13.40;39.10;;;;;;5003141;28;20552;-69
2022/10/28 02:06:40;;;;;;;13.67;6.47;;;13.40;39.20;;;;;;4998028;28;20573;-69
2022/10/28 02:09:14;;;;;;;11.63;6.77;;;13.40;39.10;;;;;;5001377;28;20484;-69
2022/10/28 02:12:06;;;;;;;14.77;7.33;;;13.40;39.10;;;;;;5002143;28;20455;-70
2022/10/28 02:14:48;;;;;;;15.93;7.57;;;13.30;39.40;;;;;;5001854;28;20539;-70
2022/10/28 02:17:24;;;;;;;14.17;7.17;;;13.30;39.20;;;;;;4999851;28;20544;-69
2022/10/28 02:19:56;;;;;;;11.77;8.20;;;13.30;39.30;;;;;;5001237;28;20576;-67
2022/10/28 02:22:30;;;;;;;11.63;7.57;;;13.30;39.10;;;;;;4996700;28;20956;-68
2022/10/28 02:25:05;;;;;;;12.00;7.57;;;13.30;39.20;;;;;;4999428;28;20556;-68
2022/10/28 02:27:35;;;;;;;12.10;7.33;;;13.30;39.20;;;;;;5001918;28;20464;-69
2022/10/28 02:30:06;;;;;;;13.60;7.77;;;13.20;39.10;;;;;;5001375;28;20459;-69
2022/10/28 02:32:38;;;;;;;11.47;7.27;;;13.20;39.20;;;;;;4997499;28;20563;-69
2022/10/28 02:35:11;;;;;;;14.70;7.43;;;13.20;39.10;;;;;;4999215;28;21051;-68
2022/10/28 02:37:41;;;;;;;11.80;8.03;;;13.10;39.10;;;;;;5002796;28;20459;-69
2022/10/28 02:40:15;;;;;;;12.10;6.30;;;13.00;39.10;;;;;;5002631;28;20487;-68
2022/10/28 02:42:49;;;;;;;14.23;8.10;;;13.10;39.20;;;;;;5000145;28;20466;-68
2022/10/28 02:45:19;;;;;;;13.20;7.23;;;13.10;39.20;;;;;;4999940;28;21047;-70
2022/10/28 02:47:51;;;;;;;19.10;7.63;;;13.00;39.10;;;;;;5002456;28;20459;-70
2022/10/28 02:50:23;;;;;;;15.70;8.80;;;13.00;39.20;;;;;;5003948;28;20466;-68
2022/10/28 02:52:54;;;;;;;11.17;7.70;;;13.00;39.40;;;;;;5002520;28;20467;-70
2022/10/28 02:55:24;;;;;;;18.67;8.00;;;13.10;39.70;;;;;;5006780;28;20497;-70
2022/10/28 02:57:51;;;;;;;12.70;7.70;;;13.10;39.70;;;;;;5000715;28;20471;-68
2022/10/28 03:00:21;;;;;;;11.80;7.50;;;13.00;39.60;;;;;;5003640;28;20467;-68
2022/10/28 03:02:49;;;;;;;11.00;7.60;;;13.00;39.60;;;;;;5009041;28;20456;-68
2022/10/28 03:05:16;;;;;;;13.33;7.63;;;13.00;39.60;;;;;;5005674;28;20487;-70
2022/10/28 03:07:43;;;;;;;13.70;7.27;;;13.00;39.50;;;;;;5004714;28;20554;-69
2022/10/28 03:10:10;;;;;;;13.73;7.63;;;13.00;40.10;;;;;;5008323;28;20464;-70
2022/10/28 03:12:37;;;;;;;14.07;8.27;;;13.00;39.80;;;;;;5001407;28;20964;-68
2022/10/28 03:15:05;;;;;;;12.63;7.77;;;13.00;40.00;;;;;;5007029;28;20463;-69
2022/10/28 03:17:31;;;;;;;15.90;7.03;;;13.00;39.90;;;;;;5001693;28;20467;-69
2022/10/28 03:20:00;;;;;;;15.80;8.50;;;13.10;39.80;;;;;;5003801;28;20483;-68
2022/10/28 03:22:26;;;;;;;10.87;7.60;;;13.10;39.60;;;;;;5004960;28;20906;-68
2022/10/28 03:24:53;;;;;;;12.90;7.67;;;13.00;39.50;;;;;;5006846;28;20472;-69
2022/10/28 03:27:20;;;;;;;17.73;8.03;;;13.00;39.50;;;;;;5003693;28;20772;-68
2022/10/28 03:29:47;;;;;;;12.30;8.30;;;13.00;39.60;;;;;;5011621;28;20960;-68
2022/10/28 03:32:14;;;;;;;11.10;6.80;;;13.00;39.70;;;;;;5001251;28;20480;-68
2022/10/28 03:34:41;;;;;;;11.73;6.97;;;13.00;39.60;;;;;;5004771;28;20562;-68
2022/10/28 03:37:09;;;;;;;14.23;7.63;;;12.90;39.70;;;;;;5004365;28;20491;-68
2022/10/28 03:39:36;;;;;;;14.30;7.80;;;13.00;39.60;;;;;;5006626;28;20930;-68
2022/10/28 03:42:03;;;;;;;12.20;7.57;;;12.90;39.60;;;;;;5007736;28;20518;-69
2022/10/28 03:44:29;;;;;;;17.07;8.67;;;13.00;39.80;;;;;;5006924;28;20479;-69
2022/10/28 03:46:56;;;;;;;12.00;7.60;;;13.10;39.60;;;;;;5004151;28;20490;-68
2022/10/28 03:49:23;;;;;;;13.27;7.53;;;13.00;39.60;;;;;;5004980;28;20547;-68
2022/10/28 03:51:50;;;;;;;11.70;8.13;;;13.00;39.80;;;;;;5005715;28;20462;-68
2022/10/28 03:54:18;;;;;;;12.73;7.87;;;13.00;39.90;;;;;;5007326;28;20583;-69
2022/10/28 03:56:45;;;;;;;13.23;7.83;;;12.90;40.10;;;;;;5001721;28;20491;-69
2022/10/28 03:59:12;;;;;;;17.53;7.97;;;13.00;40.10;;;;;;4999324;28;20612;-68
2022/10/28 04:01:39;;;;;;;12.63;7.83;;;12.90;40.20;;;;;;4993768;28;22358;-68
2022/10/28 04:04:06;;;;;;;10.43;6.83;;;12.90;40.10;;;;;;4995169;28;20471;-68
2022/10/28 04:06:33;;;;;;;20.70;8.93;;;12.90;40.10;;;;;;5001068;28;20479;-68
2022/10/28 04:09:00;;;;;;;14.93;8.07;;;12.80;39.90;;;;;;5001797;28;20555;-68
2022/10/28 04:11:28;;;;;;;15.70;8.00;;;12.90;40.10;;;;;;5004670;28;20468;-68
2022/10/28 04:13:55;;;;;;;17.90;7.97;;;12.80;40.10;;;;;;5007468;28;20564;-68
2022/10/28 04:16:22;;;;;;;14.73;8.70;;;12.90;40.00;;;;;;5004101;28;20582;-68
2022/10/28 04:18:48;;;;;;;13.40;8.03;;;12.90;40.10;;;;;;5004731;28;20490;-68
2022/10/28 04:21:15;;;;;;;13.80;9.20;;;12.90;40.10;;;;;;5004779;28;20488;-68
2022/10/28 04:23:42;;;;;;;14.93;8.17;;;12.90;40.10;;;;;;5003880;28;20953;-68
2022/10/28 04:26:09;;;;;;;15.53;7.63;;;13.00;40.10;;;;;;5010129;28;20925;-68
2022/10/28 04:28:37;;;;;;;15.93;8.60;;;13.00;40.30;;;;;;5003351;28;21025;-68
2022/10/28 04:31:04;;;;;;;14.07;7.40;;;13.10;40.00;;;;;;5002881;28;20489;-68
2022/10/28 04:33:31;;;;;;;18.57;7.30;;;13.10;40.00;;;;;;4996188;28;20544;-68
2022/10/28 04:35:58;;;;;;;13.57;7.37;;;13.10;39.90;;;;;;4996790;28;20562;-68
2022/10/28 04:38:25;;;;;;;15.57;6.90;;;13.10;39.90;;;;;;5001768;28;20555;-69
2022/10/28 04:40:52;;;;;;;12.70;6.90;;;13.10;39.70;;;;;;5002379;28;20460;-68
2022/10/28 04:43:18;;;;;;;13.80;7.67;;;13.10;39.70;;;;;;4997022;28;20522;-68
2022/10/28 04:45:47;;;;;;;14.70;6.67;;;13.20;39.30;;;;;;5001052;28;20566;-68
2022/10/28 04:48:14;;;;;;;11.93;6.53;;;13.10;39.40;;;;;;5002649;28;20544;-67
2022/10/28 04:50:41;;;;;;;15.40;8.30;;;13.20;39.20;;;;;;5003456;28;20491;-68
2022/10/28 04:53:08;;;;;;;14.70;8.40;;;13.20;39.30;;;;;;5001155;28;20487;-69
2022/10/28 04:55:35;;;;;;;13.47;6.83;;;13.20;39.30;;;;;;5000490;28;20516;-69
2022/10/28 04:58:02;;;;;;;12.83;7.20;;;13.20;39.40;;;;;;5002563;28;20451;-69
2022/10/28 05:00:30;;;;;;;10.70;6.20;;;13.10;39.30;;;;;;5002410;28;20559;-69
2022/10/28 05:03:01;;;;;;;14.63;7.80;;;13.10;39.30;;;;;;5000416;28;20976;-69
2022/10/28 05:05:28;;;;;;;11.40;6.33;;;13.20;39.20;;;;;;5001414;28;21252;-69
2022/10/28 05:07:55;;;;;;;11.43;6.07;;;13.20;39.30;;;;;;5001108;28;20457;-69
2022/10/28 05:10:21;;;;;;;19.67;6.70;;;13.20;39.20;;;;;;5000052;28;20452;-69
2022/10/28 05:12:48;;;;;;;13.10;6.30;;;13.10;38.90;;;;;;5002070;28;20468;-69
2022/10/28 05:15:15;;;;;;;13.27;6.90;;;13.10;38.80;;;;;;4994544;28;20511;-68
2022/10/28 05:17:44;;;;;;;13.37;6.33;;;13.00;38.80;;;;;;4997545;28;20468;-68
2022/10/28 05:20:13;;;;;;;10.23;6.33;;;13.00;38.80;;;;;;5002853;28;21070;-68
2022/10/28 05:22:46;;;;;;;12.07;6.20;;;13.00;38.80;;;;;;4987567;28;20457;-68
2022/10/28 05:25:13;;;;;;;9.97;5.97;;;12.90;38.70;;;;;;5000085;28;20476;-68
2022/10/28 05:27:40;;;;;;;11.37;6.27;;;12.90;38.70;;;;;;5005468;28;20456;-68
2022/10/28 05:30:08;;;;;;;16.80;6.60;;;12.80;38.60;;;;;;5000364;28;20463;-68
2022/10/28 05:32:35;;;;;;;12.47;6.10;;;12.80;38.60;;;;;;4999855;28;20847;-68
2022/10/28 05:35:02;;;;;;;17.20;6.40;;;12.80;38.50;;;;;;5005206;28;20546;-70
2022/10/28 05:37:30;;;;;;;13.57;6.97;;;12.80;38.50;;;;;;5000587;28;20496;-69
2022/10/28 05:39:57;;;;;;;11.07;5.70;;;12.70;38.40;;;;;;5001594;28;21021;-69
2022/10/28 05:42:24;;;;;;;12.03;6.00;;;12.60;38.30;;;;;;4999254;28;20469;-68
2022/10/28 05:44:51;;;;;;;13.07;5.73;;;12.60;38.40;;;;;;5000787;28;20464;-69
2022/10/28 05:47:18;;;;;;;10.50;6.20;;;12.60;38.40;;;;;;5004093;28;20545;-68
2022/10/28 05:49:45;;;;;;;19.23;6.50;;;12.60;38.30;;;;;;5001140;28;20885;-68
2022/10/28 05:52:11;;;;;;;11.77;7.60;;;12.60;38.50;;;;;;4997756;28;20460;-68
2022/10/28 05:54:40;;;;;;;11.20;5.60;;;12.60;38.50;;;;;;5006733;28;21071;-68
2022/10/28 05:57:07;;;;;;;13.50;5.93;;;12.60;39.20;;;;;;4992141;28;20494;-69
2022/10/28 05:59:33;;;;;;;14.90;7.17;;;12.60;38.60;;;;;;5002839;28;20491;-68
2022/10/28 06:02:00;;;;;;;12.43;7.07;;;12.70;38.60;;;;;;4996339;28;20494;-68
2022/10/28 06:04:31;;;;;;;14.50;7.03;;;12.70;38.60;;;;;;5001788;28;20455;-68
2022/10/28 06:06:58;;;;;;;15.27;7.13;;;12.70;38.60;;;;;;5009912;28;20519;-70
2022/10/28 06:09:27;;;;;;;14.10;5.90;;;12.80;38.60;;;;;;5001145;28;20540;-70
2022/10/28 06:11:55;;;;;;;12.53;7.40;;;12.80;38.50;;;;;;4997020;28;20555;-68
2022/10/28 06:14:22;;;;;;;12.83;6.23;;;12.90;38.50;;;;;;4998780;28;20467;-66
2022/10/28 06:16:49;;;;;;;15.87;5.87;;;13.00;38.40;;;;;;4995963;28;20487;-70
2022/10/28 06:19:16;;;;;;;14.90;7.27;;;13.10;38.00;;;;;;5009336;28;20512;-68
2022/10/28 06:21:43;;;;;;;13.10;5.50;;;13.20;37.90;;;;;;5003537;28;20470;-71
2022/10/28 06:24:10;;;;;;;11.73;7.00;;;13.20;37.90;;;;;;5006319;28;20985;-70
2022/10/28 06:26:37;;;;;;;9.93;5.67;;;13.30;37.70;;;;;;4995585;28;20490;-68
2022/10/28 06:29:05;;;;;;;8.83;6.03;;;13.30;37.50;;;;;;5001011;28;20463;-68
2022/10/28 06:31:32;;;;;;;9.90;5.60;;;13.40;37.30;;;;;;5000861;28;20559;-67
2022/10/28 06:33:59;;;;;;;10.07;4.97;;;13.50;37.20;;;;;;4997374;28;20488;-68
2022/10/28 06:36:26;;;;;;;10.03;5.77;;;13.50;36.90;;;;;;4995017;28;20485;-70
2022/10/28 06:38:54;;;;;;;11.30;4.70;;;13.60;36.60;;;;;;4992919;28;20499;-70
2022/10/28 06:41:20;;;;;;;12.10;5.00;;;13.60;36.50;;;;;;4999996;28;20480;-69
2022/10/28 06:43:47;;;;;;;11.77;5.33;;;13.70;36.50;;;;;;4997199;28;20461;-70
2022/10/28 06:46:15;;;;;;;9.27;4.90;;;13.80;36.20;;;;;;5007437;28;20480;-70
2022/10/28 06:48:42;;;;;;;13.13;5.50;;;13.90;35.90;;;;;;5001839;28;20560;-69
2022/10/28 06:51:09;;;;;;;11.63;5.17;;;14.10;35.10;;;;;;5000111;28;20463;-69
2022/10/28 06:53:36;;;;;;;10.03;5.13;;;14.20;34.90;;;;;;5000243;28;21176;-69
2022/10/28 06:56:03;;;;;;;12.40;4.63;;;14.30;34.90;;;;;;5007152;28;21078;-70
2022/10/28 06:58:30;;;;;;;9.57;4.83;;;14.50;34.80;;;;;;5004211;28;20460;-70
2022/10/28 07:01:02;;;;;;;12.10;4.67;;;14.60;35.30;;;;;;4990140;28;20483;-65
2022/10/28 07:03:31;;;;;;;10.27;4.73;;;14.70;34.40;;;;;;5002907;28;20459;-68
2022/10/28 07:05:59;;;;;;;8.73;4.23;;;14.80;33.90;;;;;;4998681;28;20571;-65
2022/10/28 07:08:26;;;;;;;8.73;4.30;;;14.80;33.80;;;;;;5000617;28;20461;-65
2022/10/28 07:10:55;;;;;;;8.67;4.33;;;14.80;33.60;;;;;;5001259;28;20625;-66
2022/10/28 07:13:22;;;;;;;13.53;5.10;;;14.80;33.50;;;;;;4999722;28;20468;-66
2022/10/28 07:15:52;;;;;;;8.93;4.20;;;14.80;33.50;;;;;;5003875;28;20471;-66
2022/10/28 07:18:19;;;;;;;8.97;4.40;;;14.70;33.50;;;;;;5000743;28;20483;-66
2022/10/28 07:20:48;;;;;;;8.47;4.07;;;14.70;33.70;;;;;;5003929;28;20481;-65
2022/10/28 07:23:15;;;;;;;8.40;4.10;;;14.70;33.20;;;;;;5003762;28;20466;-65
2022/10/28 07:25:42;;;;;;;8.50;3.60;;;14.70;31.80;;;;;;5001238;28;20563;-66
2022/10/28 07:28:09;;;;;;;12.27;4.43;;;14.70;30.90;;;;;;5000590;28;21036;-65
2022/10/28 07:30:36;;;;;;;7.80;3.63;;;14.70;30.60;;;;;;5000787;28;21263;-68
2022/10/28 07:33:05;;;;;;;8.27;3.43;;;14.70;31.30;;;;;;4997383;28;20557;-69
2022/10/28 07:35:32;;;;;;;9.70;3.63;;;14.70;31.50;;;;;;4995776;28;20587;-69
2022/10/28 07:38:00;;;;;;;10.10;3.17;;;14.70;31.90;;;;;;5000615;28;20547;-68
2022/10/28 07:40:27;;;;;;;9.80;4.37;;;14.70;32.10;;;;;;5005326;28;20495;-62
2022/10/28 07:42:54;;;;;;;7.40;3.90;;;14.70;32.30;;;;;;5004235;28;20466;-72
2022/10/28 07:45:20;;;;;;;8.13;3.43;;;14.70;32.50;;;;;;5004401;28;20518;-64
2022/10/28 07:47:47;;;;;;;8.47;4.00;;;14.80;32.50;;;;;;5005424;28;20960;-65
2022/10/28 07:50:14;;;;;;;6.33;3.00;;;14.80;31.40;;;;;;5005659;28;20543;-64
2022/10/28 07:52:41;;;;;;;9.57;3.50;;;14.90;31.00;;;;;;5005931;28;20559;-69
2022/10/28 07:55:11;;;;;;;10.33;3.53;;;14.90;30.50;;;;;;5006022;28;20537;-64
2022/10/28 07:57:38;;;;;;;10.97;4.10;;;14.90;30.60;;;;;;5007559;28;20527;-62
2022/10/28 08:00:07;;;;;;;9.83;4.20;;;15.00;30.20;;;;;;5006694;28;20935;-63
2022/10/28 08:02:34;;;;;;;10.47;3.83;;;15.00;30.60;;;;;;5003949;28;20570;-64
2022/10/28 08:05:01;;;;;;;10.97;3.87;;;15.00;30.60;;;;;;5001277;28;20571;-64
2022/10/28 08:07:28;;;;;;;14.27;3.30;;;15.00;30.70;;;;;;5000694;28;20469;-73
2022/10/28 08:09:55;;;;;;;10.80;3.47;;;15.10;30.70;;;;;;5008887;28;20495;-69
2022/10/28 08:12:23;;;;;;;7.80;4.03;;;15.10;30.10;;;;;;5005723;28;20542;-69
2022/10/28 08:14:50;;;;;;;8.37;3.47;;;15.20;30.20;;;;;;4996681;28;20482;-70
2022/10/28 08:17:17;;;;;;;12.73;3.93;;;15.30;30.20;;;;;;5005475;28;20555;-70
2022/10/28 08:19:44;;;;;;;13.03;5.30;;;15.30;30.50;;;;;;4998359;28;20550;-69
2022/10/28 08:22:11;;;;;;;9.20;3.80;;;15.30;30.70;;;;;;5005815;28;20538;-70
2022/10/28 08:24:38;;;;;;;10.53;4.97;;;15.40;30.80;;;;;;5005518;28;20462;-69
2022/10/28 08:27:05;;;;;;;10.07;3.70;;;15.40;30.80;;;;;;5001877;28;20572;-70
2022/10/28 08:29:33;;;;;;;12.83;3.60;;;15.50;30.90;;;;;;5004248;28;20559;-69
2022/10/28 08:32:00;;;;;;;12.80;4.00;;;15.50;31.00;;;;;;5001301;28;20502;-67
2022/10/28 08:34:28;;;;;;;11.27;4.07;;;15.60;31.70;;;;;;5005372;28;20542;-69
2022/10/28 08:36:55;;;;;;;7.60;4.10;;;15.60;31.10;;;;;;5004472;28;20533;-67
2022/10/28 08:39:22;;;;;;;8.83;4.73;;;15.80;31.30;;;;;;5006516;28;20945;-74
2022/10/28 08:41:55;;;;;;;8.17;3.30;;;15.90;31.80;;;;;;5012109;28;20512;-74
2022/10/28 08:44:40;;;;;;;7.73;3.33;;;16.00;30.80;;;;;;5003698;28;20499;-68
2022/10/28 08:47:19;;;;;;;9.50;2.83;;;16.20;29.50;;;;;;5004623;28;20987;-69
2022/10/28 08:49:50;;;;;;;8.90;4.17;;;16.20;29.70;;;;;;5002735;28;20460;-68
2022/10/28 08:52:27;;;;;;;7.63;3.17;;;16.40;29.10;;;;;;5006694;28;20949;-71
2022/10/28 08:55:00;;;;;;;9.20;3.07;;;16.50;28.70;;;;;;5000399;28;20825;-74
2022/10/28 08:57:36;;;;;;;7.60;3.50;;;16.60;28.30;;;;;;5002067;28;20479;-70
2022/10/28 09:00:07;;;;;;;8.53;2.90;;;16.80;27.90;;;;;;5002433;28;20491;-72
2022/10/28 09:02:47;;;;;;;10.37;2.93;;;17.00;26.80;;;;;;5003579;28;20487;-73
2022/10/28 09:05:21;;;;;;;7.47;2.77;;;17.20;26.50;;;;;;5004552;28;20860;-72
2022/10/28 09:07:48;;;;;;;6.77;2.53;;;17.40;26.20;;;;;;5003837;28;20460;-72
2022/10/28 09:10:16;;;;;;;7.70;3.30;;;17.60;25.80;;;;;;5008902;28;20455;-72
2022/10/28 09:12:52;;;;;;;6.70;2.80;;;17.80;25.00;;;;;;5005057;28;20459;-71
2022/10/28 09:15:31;;;;;;;15.90;4.37;;;17.80;24.80;;;;;;5003429;28;20486;-73
2022/10/28 09:18:03;;;;;;;11.10;3.17;;;17.90;24.50;;;;;;5005544;28;20464;-72
2022/10/28 09:20:44;;;;;;;8.57;3.30;;;18.00;23.30;;;;;;4998103;28;20480;-72
2022/10/28 09:23:21;;;;;;;8.83;3.10;;;18.00;22.00;;;;;;5001176;28;20455;-72
2022/10/28 09:25:57;;;;;;;8.10;3.40;;;18.00;22.30;;;;;;5002011;28;21078;-71
2022/10/28 09:28:37;;;;;;;9.50;3.13;;;18.00;22.70;;;;;;5004628;28;20459;-71
2022/10/28 09:31:14;;;;;;;7.57;3.37;;;18.00;22.50;;;;;;5008082;28;20470;-72
2022/10/28 09:33:51;;;;;;;8.30;3.30;;;18.00;23.40;;;;;;5005393;28;20464;-73
2022/10/28 09:36:23;;;;;;;13.90;3.87;;;18.00;23.70;;;;;;5005326;28;20483;-72
2022/10/28 09:38:53;;;;;;;11.43;3.30;;;18.10;23.10;;;;;;5004555;28;21086;-72
2022/10/28 09:41:24;;;;;;;11.00;3.43;;;18.10;22.80;;;;;;5002472;28;20483;-72
2022/10/28 09:43:53;;;;;;;9.50;4.10;;;18.10;22.80;;;;;;5003149;28;20491;-72
2022/10/28 09:46:24;;;;;;;10.77;3.47;;;18.20;23.10;;;;;;5000298;28;20484;-73
2022/10/28 09:48:54;;;;;;;13.80;3.43;;;18.30;23.20;;;;;;5002065;28;20464;-72
2022/10/28 09:51:42;;;;;;;8.50;3.53;;;18.40;22.80;;;;;;5002053;28;20643;-71
2022/10/28 09:54:11;;;;;;;7.90;3.20;;;18.40;23.10;;;;;;4997320;28;20493;-72
2022/10/28 09:56:38;;;;;;;10.47;3.63;;;18.50;23.20;;;;;;5001922;28;20499;-74
2022/10/28 09:59:05;;;;;;;11.40;4.20;;;18.60;23.50;;;;;;5007468;28;20452;-73
2022/10/28 10:01:35;;;;;;;6.63;3.03;;;18.70;23.70;;;;;;4998460;28;20508;-72
2022/10/28 10:04:05;;;;;;;7.70;3.23;;;18.70;24.50;;;;;;5005662;28;20490;-72
2022/10/28 10:06:36;;;;;;;9.70;3.53;;;18.80;23.80;;;;;;4998959;28;20559;-72
2022/10/28 10:09:04;;;;;;;7.87;3.40;;;19.00;23.90;;;;;;5005045;28;20452;-72
2022/10/28 10:11:34;;;;;;;14.60;4.53;;;19.10;23.60;;;;;;5004784;28;20462;-72
2022/10/28 10:14:07;;;;;;;6.37;3.13;;;19.30;23.00;;;;;;5003204;28;20549;-72
2022/10/28 10:16:40;;;;;;;9.27;3.17;;;19.50;22.60;;;;;;5006952;28;20476;-71
2022/10/28 10:19:09;;;;;;;9.80;2.77;;;19.60;22.40;;;;;;5005946;28;20921;-73
2022/10/28 10:21:45;;;;;;;7.80;3.43;;;19.70;22.10;;;;;;5005696;28;20487;-73
2022/10/28 10:24:27;;;;;;;11.43;3.80;;;19.80;21.20;;;;;;5002687;28;20514;-74
2022/10/28 10:26:54;;;;;;;13.50;4.97;;;20.00;21.00;;;;;;4997863;28;20487;-74
2022/10/28 10:29:22;;;;;;;11.17;5.40;;;20.20;20.70;;;;;;5006784;28;20463;-72
2022/10/28 10:32:05;;;;;;;9.53;3.03;;;20.40;20.30;;;;;;5005546;28;21083;-72
2022/10/28 10:34:32;;;;;;;7.40;2.80;;;20.50;19.70;;;;;;5002082;28;20482;-72
2022/10/28 10:37:00;;;;;;;7.33;3.00;;;20.60;19.80;;;;;;5003381;28;20503;-72
2022/10/28 10:39:32;;;;;;;7.53;2.77;;;20.70;19.60;;;;;;5002550;28;20463;-72
2022/10/28 10:41:59;;;;;;;6.23;2.40;;;20.90;19.30;;;;;;4997225;28;20554;-72
2022/10/28 10:44:35;;;;;;;10.93;2.80;;;21.20;19.20;;;;;;4994007;28;20459;-73
2022/10/28 10:47:19;;;;;;;9.30;3.23;;;21.40;19.10;;;;;;5005367;28;20482;-73
2022/10/28 10:49:48;;;;;;;6.70;3.00;;;21.80;19.40;;;;;;5002801;28;20491;-64
2022/10/28 10:52:19;;;;;;;6.80;2.53;;;22.00;19.00;;;;;;4996008;28;20453;-70
2022/10/28 10:54:57;;;;;;;7.20;3.23;;;22.20;18.50;;;;;;5000838;28;21140;-65
2022/10/28 10:57:25;;;;;;;7.60;2.80;;;22.50;18.40;;;;;;4999091;28;20472;-72
2022/10/28 10:59:54;;;;;;;11.97;3.90;;;22.70;17.80;;;;;;5001502;28;20896;-71
2022/10/28 11:02:25;;;;;;;7.33;2.90;;;22.80;17.20;;;;;;4998978;28;20866;-68
2022/10/28 11:04:53;;;;;;;12.10;3.50;;;22.80;17.00;;;;;;5003808;28;20464;-70
2022/10/28 11:07:20;;;;;;;8.37;2.77;;;23.30;17.30;;;;;;4998000;28;20479;-66
2022/10/28 11:09:49;;;;;;;7.83;2.83;;;24.50;15.80;;;;;;5001277;28;20460;-68
2022/10/28 11:12:24;;;;;;;7.53;3.73;;;25.60;12.80;;;;;;5006510;28;20459;-70
2022/10/28 11:14:56;;;;;;;8.07;3.33;;;26.30;11.50;;;;;;5007599;28;20461;-67
2022/10/28 11:17:26;;;;;;;9.10;3.40;;;27.20;9.60;;;;;;5002509;28;20510;-68
2022/10/28 11:19:56;;;;;;;6.73;2.90;;;27.80;7.70;;;;;;5002775;28;20458;-70
2022/10/28 11:22:42;;;;;;;6.60;2.63;;;28.40;6.10;;;;;;5001268;28;20483;-70
2022/10/28 11:25:34;;;;;;;7.60;3.37;;;28.90;4.70;;;;;;5001435;28;20565;-72
2022/10/28 11:28:24;;;;;;;4.87;2.30;;;29.30;4.10;;;;;;5005158;28;20467;-70
2022/10/28 11:31:02;;;;;;;6.30;2.80;;;29.40;2.80;;;;;;4997385;28;21263;-70
2022/10/28 11:33:37;;;;;;;6.17;2.93;;;28.40;3.70;;;;;;5005757;28;20850;-71
2022/10/28 11:36:16;;;;;;;8.83;3.70;;;27.50;4.50;;;;;;5001258;28;20483;-71
2022/10/28 11:39:09;;;;;;;12.60;3.87;;;27.80;5.20;;;;;;4997132;28;20475;-71
2022/10/28 11:41:47;;;;;;;7.40;3.10;;;28.30;4.70;;;;;;5001138;28;21018;-70
2022/10/28 11:44:28;;;;;;;8.37;2.73;;;28.00;4.30;;;;;;4993855;28;20460;-71
2022/10/28 11:47:08;;;;;;;9.13;2.90;;;27.30;5.00;;;;;;5002332;28;20518;-71
2022/10/28 11:50:07;;;;;;;8.70;2.43;;;26.60;6.30;;;;;;5000822;28;20474;-72
2022/10/28 11:52:53;;;;;;;8.23;3.23;;;26.10;7.30;;;;;;4988170;28;20466;-70
2022/10/28 11:55:30;;;;;;;6.80;3.07;;;25.60;7.70;;;;;;4999964;28;20491;-67
2022/10/28 11:58:09;;;;;;;7.63;3.17;;;25.40;8.20;;;;;;4995119;28;20456;-65
2022/10/28 12:00:55;;;;;;;8.23;2.73;;;25.20;8.70;;;;;;4999601;28;20506;-63
2022/10/28 12:03:43;;;;;;;6.30;2.60;;;25.00;9.50;;;;;;4996054;28;20468;-64
2022/10/28 12:06:16;;;;;;;11.73;3.40;;;24.80;9.50;;;;;;4998226;28;21189;-64
2022/10/28 12:08:58;;;;;;;10.70;3.83;;;24.80;10.20;;;;;;4995992;28;20457;-65
2022/10/28 12:11:34;;;;;;;9.67;2.77;;;25.70;9.70;;;;;;5002708;28;20460;-64
2022/10/28 12:14:07;;;;;;;7.90;3.17;;;26.70;8.40;;;;;;4999521;28;20482;-65
2022/10/28 12:16:41;;;;;;;9.43;3.10;;;27.40;7.10;;;;;;5003332;28;21004;-64
2022/10/28 12:19:13;;;;;;;11.83;3.30;;;27.90;5.60;;;;;;5002502;28;20956;-65
2022/10/28 12:21:43;;;;;;;11.90;3.50;;;28.10;5.20;;;;;;5000402;28;20484;-66
2022/10/28 12:24:16;;;;;;;10.47;2.70;;;27.90;5.00;;;;;;4999417;28;20461;-64
2022/10/28 12:26:45;;;;;;;8.13;2.80;;;28.10;5.60;;;;;;5006421;28;20481;-63
2022/10/28 12:29:19;;;;;;;7.20;3.40;;;28.30;5.20;;;;;;5005021;28;20978;-64
2022/10/28 12:31:50;;;;;;;9.00;2.87;;;28.70;4.70;;;;;;5000196;28;20464;-65
2022/10/28 12:34:22;;;;;;;9.43;2.90;;;28.90;4.90;;;;;;5007460;28;20833;-64
2022/10/28 12:36:54;;;;;;;7.37;2.60;;;29.00;4.60;;;;;;5002386;28;20493;-64
2022/10/28 12:39:27;;;;;;;12.43;4.20;;;29.10;5.00;;;;;;5001186;28;20461;-64
2022/10/28 12:41:59;;;;;;;6.80;3.17;;;29.10;4.60;;;;;;5003727;28;20472;-64
2022/10/28 12:44:27;;;;;;;11.10;2.77;;;29.00;4.70;;;;;;5003185;28;20456;-64
2022/10/28 12:47:04;;;;;;;10.53;2.53;;;28.70;3.20;;;;;;5001992;28;20475;-64
2022/10/28 12:49:39;;;;;;;12.00;3.97;;;28.30;3.30;;;;;;5002915;28;20466;-64
2022/10/28 12:52:17;;;;;;;9.87;3.27;;;28.10;4.30;;;;;;5001220;28;20460;-64
2022/10/28 12:54:57;;;;;;;7.60;2.30;;;27.90;4.10;;;;;;5006265;28;20460;-64
2022/10/28 12:57:25;;;;;;;5.90;2.57;;;27.50;5.20;;;;;;5007197;28;20976;-64
2022/10/28 12:59:56;;;;;;;7.27;2.07;;;27.10;5.90;;;;;;5006422;28;20467;-64